sensor_id;sensor_type;location;lat;lon;timestamp;P1;durP1;ratioP1;P2;durP2;ratioP2
75139;SDS011;63714;55.812;37.658;2023-03-01T00:01:12;1.25;;;0.38;;
75139;SDS011;63714;55.812;37.658;2023-03-01T00:03:41;2.33;;;0.30;;
75139;SDS011;63714;55.812;37.658;2023-03-01T00:06:07;1.13;;;0.40;;
75139;SDS011;63714;55.812;37.658;2023-03-01T00:08:33;2.28;;;0.40;;
75139;SDS011;63714;55.812;37.658;2023-03-01T00:11:00;2.30;;;0.20;;
75139;SDS011;63714;55.812;37.658;2023-03-01T00:13:31;1.27;;;0.40;;
75139;SDS011;63714;55.812;37.658;2023-03-01T00:15:57;1.88;;;0.20;;
75139;SDS011;63714;55.812;37.658;2023-03-01T00:18:23;2.25;;;0.38;;
75139;SDS011;63714;55.812;37.658;2023-03-01T00:20:53;2.28;;;0.68;;
75139;SDS011;63714;55.812;37.658;2023-03-01T00:23:20;1.90;;;0.43;;
75139;SDS011;63714;55.812;37.658;2023-03-01T00:25:46;1.50;;;0.25;;
75139;SDS011;63714;55.812;37.658;2023-03-01T00:28:13;2.53;;;0.40;;
75139;SDS011;63714;55.812;37.658;2023-03-01T00:30:38;2.13;;;0.38;;
75139;SDS011;63714;55.812;37.658;2023-03-01T00:33:04;2.70;;;0.57;;
75139;SDS011;63714;55.812;37.658;2023-03-01T00:35:31;1.38;;;0.30;;
75139;SDS011;63714;55.812;37.658;2023-03-01T00:37:57;2.35;;;0.40;;
75139;SDS011;63714;55.812;37.658;2023-03-01T00:40:27;1.60;;;0.45;;
75139;SDS011;63714;55.812;37.658;2023-03-01T00:42:53;1.00;;;0.30;;
75139;SDS011;63714;55.812;37.658;2023-03-01T00:45:19;1.73;;;0.30;;
75139;SDS011;63714;55.812;37.658;2023-03-01T00:47:45;2.30;;;0.30;;
75139;SDS011;63714;55.812;37.658;2023-03-01T00:50:12;0.93;;;0.32;;
75139;SDS011;63714;55.812;37.658;2023-03-01T00:52:37;0.68;;;0.20;;
75139;SDS011;63714;55.812;37.658;2023-03-01T00:55:03;1.02;;;0.20;;
75139;SDS011;63714;55.812;37.658;2023-03-01T00:57:30;2.03;;;0.30;;
75139;SDS011;63714;55.812;37.658;2023-03-01T00:59:56;2.38;;;0.38;;
75139;SDS011;63714;55.812;37.658;2023-03-01T01:02:21;0.28;;;0.10;;
75139;SDS011;63714;55.812;37.658;2023-03-01T01:04:47;1.00;;;0.30;;
75139;SDS011;63714;55.812;37.658;2023-03-01T01:07:13;1.27;;;0.22;;
75139;SDS011;63714;55.812;37.658;2023-03-01T01:09:39;2.17;;;0.30;;
75139;SDS011;63714;55.812;37.658;2023-03-01T01:12:05;1.20;;;0.40;;
75139;SDS011;63714;55.812;37.658;2023-03-01T01:14:31;1.92;;;0.30;;
75139;SDS011;63714;55.812;37.658;2023-03-01T01:16:57;1.52;;;0.32;;
75139;SDS011;63714;55.812;37.658;2023-03-01T01:19:23;0.80;;;0.30;;
75139;SDS011;63714;55.812;37.658;2023-03-01T01:21:50;2.60;;;0.30;;
75139;SDS011;63714;55.812;37.658;2023-03-01T01:24:16;1.70;;;0.40;;
75139;SDS011;63714;55.812;37.658;2023-03-01T01:26:42;1.17;;;0.40;;
75139;SDS011;63714;55.812;37.658;2023-03-01T01:29:08;1.58;;;0.38;;
75139;SDS011;63714;55.812;37.658;2023-03-01T01:31:35;2.30;;;0.65;;
75139;SDS011;63714;55.812;37.658;2023-03-01T01:34:04;2.40;;;0.45;;
75139;SDS011;63714;55.812;37.658;2023-03-01T01:36:31;1.38;;;0.43;;
75139;SDS011;63714;55.812;37.658;2023-03-01T01:38:57;1.58;;;0.70;;
75139;SDS011;63714;55.812;37.658;2023-03-01T01:41:24;2.10;;;0.63;;
75139;SDS011;63714;55.812;37.658;2023-03-01T01:47:00;1.65;;;0.65;;
75139;SDS011;63714;55.812;37.658;2023-03-01T01:50:02;1.80;;;0.55;;
75139;SDS011;63714;55.812;37.658;2023-03-01T01:55:00;1.80;;;0.73;;
75139;SDS011;63714;55.812;37.658;2023-03-01T02:00:08;0.80;;;0.32;;
75139;SDS011;63714;55.812;37.658;2023-03-01T02:02:39;0.40;;;0.20;;
75139;SDS011;63714;55.812;37.658;2023-03-01T02:05:15;0.70;;;0.30;;
75139;SDS011;63714;55.812;37.658;2023-03-01T02:07:42;2.97;;;0.50;;
75139;SDS011;63714;55.812;37.658;2023-03-01T02:10:09;4.03;;;0.90;;
75139;SDS011;63714;55.812;37.658;2023-03-01T02:12:35;0.88;;;0.38;;
75139;SDS011;63714;55.812;37.658;2023-03-01T02:15:03;1.00;;;0.20;;
75139;SDS011;63714;55.812;37.658;2023-03-01T02:17:29;2.60;;;0.60;;
75139;SDS011;63714;55.812;37.658;2023-03-01T02:22:32;2.05;;;0.40;;
75139;SDS011;63714;55.812;37.658;2023-03-01T02:25:06;1.58;;;0.20;;
75139;SDS011;63714;55.812;37.658;2023-03-01T02:27:38;0.95;;;0.40;;
75139;SDS011;63714;55.812;37.658;2023-03-01T02:30:10;4.15;;;0.40;;
75139;SDS011;63714;55.812;37.658;2023-03-01T02:32:38;1.88;;;0.35;;
75139;SDS011;63714;55.812;37.658;2023-03-01T02:35:10;2.25;;;0.40;;
75139;SDS011;63714;55.812;37.658;2023-03-01T02:37:38;1.08;;;0.22;;
75139;SDS011;63714;55.812;37.658;2023-03-01T02:40:07;0.50;;;0.13;;
75139;SDS011;63714;55.812;37.658;2023-03-01T02:42:40;4.35;;;0.57;;
75139;SDS011;63714;55.812;37.658;2023-03-01T02:45:12;2.80;;;0.30;;
75139;SDS011;63714;55.812;37.658;2023-03-01T02:47:38;1.02;;;0.30;;
75139;SDS011;63714;55.812;37.658;2023-03-01T02:50:10;0.95;;;0.30;;
75139;SDS011;63714;55.812;37.658;2023-03-01T02:53:27;1.23;;;0.40;;
75139;SDS011;63714;55.812;37.658;2023-03-01T02:55:33;0.32;;;0.20;;
75139;SDS011;63714;55.812;37.658;2023-03-01T02:57:59;1.00;;;0.20;;
75139;SDS011;63714;55.812;37.658;2023-03-01T03:00:32;1.95;;;0.43;;
75139;SDS011;63714;55.812;37.658;2023-03-01T03:03:05;0.60;;;0.20;;
75139;SDS011;63714;55.812;37.658;2023-03-01T03:05:32;1.00;;;0.35;;
75139;SDS011;63714;55.812;37.658;2023-03-01T03:07:59;1.15;;;0.43;;
75139;SDS011;63714;55.812;37.658;2023-03-01T03:10:30;1.33;;;0.20;;
75139;SDS011;63714;55.812;37.658;2023-03-01T03:12:59;1.15;;;0.60;;
75139;SDS011;63714;55.812;37.658;2023-03-01T03:15:31;1.35;;;0.30;;
75139;SDS011;63714;55.812;37.658;2023-03-01T03:17:58;2.65;;;0.50;;
75139;SDS011;63714;55.812;37.658;2023-03-01T03:20:24;3.65;;;0.60;;
75139;SDS011;63714;55.812;37.658;2023-03-01T03:22:53;2.08;;;0.40;;
75139;SDS011;63714;55.812;37.658;2023-03-01T03:25:20;1.77;;;0.43;;
75139;SDS011;63714;55.812;37.658;2023-03-01T03:27:47;1.15;;;0.30;;
75139;SDS011;63714;55.812;37.658;2023-03-01T03:30:16;3.05;;;0.40;;
75139;SDS011;63714;55.812;37.658;2023-03-01T03:32:44;1.20;;;0.73;;
75139;SDS011;63714;55.812;37.658;2023-03-01T03:35:18;1.00;;;0.20;;
75139;SDS011;63714;55.812;37.658;2023-03-01T03:37:50;2.38;;;0.40;;
75139;SDS011;63714;55.812;37.658;2023-03-01T03:40:32;1.35;;;0.35;;
75139;SDS011;63714;55.812;37.658;2023-03-01T03:42:59;1.10;;;0.10;;
75139;SDS011;63714;55.812;37.658;2023-03-01T03:45:26;1.50;;;0.45;;
75139;SDS011;63714;55.812;37.658;2023-03-01T03:47:51;1.15;;;0.20;;
75139;SDS011;63714;55.812;37.658;2023-03-01T03:50:17;1.38;;;0.20;;
75139;SDS011;63714;55.812;37.658;2023-03-01T03:52:43;1.45;;;0.43;;
75139;SDS011;63714;55.812;37.658;2023-03-01T03:55:10;1.42;;;0.30;;
75139;SDS011;63714;55.812;37.658;2023-03-01T03:57:38;0.82;;;0.20;;
75139;SDS011;63714;55.812;37.658;2023-03-01T04:00:09;5.22;;;0.52;;
75139;SDS011;63714;55.812;37.658;2023-03-01T04:02:47;2.10;;;0.55;;
75139;SDS011;63714;55.812;37.658;2023-03-01T04:05:14;0.98;;;0.40;;
75139;SDS011;63714;55.812;37.658;2023-03-01T04:07:41;3.15;;;0.45;;
75139;SDS011;63714;55.812;37.658;2023-03-01T04:10:11;0.65;;;0.30;;
75139;SDS011;63714;55.812;37.658;2023-03-01T04:12:39;1.55;;;0.30;;
75139;SDS011;63714;55.812;37.658;2023-03-01T04:15:05;1.30;;;0.38;;
75139;SDS011;63714;55.812;37.658;2023-03-01T04:17:41;1.27;;;0.40;;
75139;SDS011;63714;55.812;37.658;2023-03-01T04:20:12;1.23;;;0.30;;
75139;SDS011;63714;55.812;37.658;2023-03-01T04:22:42;1.63;;;0.38;;
75139;SDS011;63714;55.812;37.658;2023-03-01T04:25:13;1.42;;;0.57;;
75139;SDS011;63714;55.812;37.658;2023-03-01T04:27:39;1.20;;;0.38;;
75139;SDS011;63714;55.812;37.658;2023-03-01T04:30:06;2.25;;;0.60;;
75139;SDS011;63714;55.812;37.658;2023-03-01T04:32:33;4.63;;;0.52;;
75139;SDS011;63714;55.812;37.658;2023-03-01T04:34:58;4.32;;;0.73;;
75139;SDS011;63714;55.812;37.658;2023-03-01T04:37:24;2.50;;;0.52;;
75139;SDS011;63714;55.812;37.658;2023-03-01T04:39:50;2.78;;;0.68;;
75139;SDS011;63714;55.812;37.658;2023-03-01T04:42:16;1.27;;;0.35;;
75139;SDS011;63714;55.812;37.658;2023-03-01T04:44:43;3.53;;;0.73;;
75139;SDS011;63714;55.812;37.658;2023-03-01T04:47:09;1.30;;;0.43;;
75139;SDS011;63714;55.812;37.658;2023-03-01T04:49:35;3.15;;;0.60;;
75139;SDS011;63714;55.812;37.658;2023-03-01T04:52:01;1.70;;;0.50;;
75139;SDS011;63714;55.812;37.658;2023-03-01T04:54:31;1.25;;;0.30;;
75139;SDS011;63714;55.812;37.658;2023-03-01T04:56:58;1.73;;;0.57;;
75139;SDS011;63714;55.812;37.658;2023-03-01T04:59:24;1.58;;;0.40;;
75139;SDS011;63714;55.812;37.658;2023-03-01T05:01:50;1.38;;;0.32;;
75139;SDS011;63714;55.812;37.658;2023-03-01T05:04:17;1.05;;;0.52;;
75139;SDS011;63714;55.812;37.658;2023-03-01T05:06:43;2.15;;;0.82;;
75139;SDS011;63714;55.812;37.658;2023-03-01T05:09:09;1.30;;;0.40;;
75139;SDS011;63714;55.812;37.658;2023-03-01T05:11:36;3.58;;;0.82;;
75139;SDS011;63714;55.812;37.658;2023-03-01T05:14:03;2.15;;;0.65;;
75139;SDS011;63714;55.812;37.658;2023-03-01T05:16:29;2.47;;;0.68;;
75139;SDS011;63714;55.812;37.658;2023-03-01T05:18:56;2.05;;;0.77;;
75139;SDS011;63714;55.812;37.658;2023-03-01T05:21:23;3.97;;;1.00;;
75139;SDS011;63714;55.812;37.658;2023-03-01T05:23:48;2.13;;;0.90;;
75139;SDS011;63714;55.812;37.658;2023-03-01T05:26:14;2.67;;;0.73;;
75139;SDS011;63714;55.812;37.658;2023-03-01T05:28:42;2.85;;;0.52;;
75139;SDS011;63714;55.812;37.658;2023-03-01T05:31:08;4.45;;;0.90;;
75139;SDS011;63714;55.812;37.658;2023-03-01T05:33:38;2.40;;;0.85;;
75139;SDS011;63714;55.812;37.658;2023-03-01T05:36:06;3.30;;;0.93;;
75139;SDS011;63714;55.812;37.658;2023-03-01T05:38:33;2.67;;;1.02;;
75139;SDS011;63714;55.812;37.658;2023-03-01T05:40:59;1.98;;;0.57;;
75139;SDS011;63714;55.812;37.658;2023-03-01T05:43:25;2.40;;;0.60;;
75139;SDS011;63714;55.812;37.658;2023-03-01T05:45:51;1.55;;;0.60;;
75139;SDS011;63714;55.812;37.658;2023-03-01T05:48:16;5.95;;;1.00;;
75139;SDS011;63714;55.812;37.658;2023-03-01T05:50:44;1.38;;;0.45;;
75139;SDS011;63714;55.812;37.658;2023-03-01T05:53:14;4.03;;;0.70;;
75139;SDS011;63714;55.812;37.658;2023-03-01T05:55:42;6.43;;;1.58;;
75139;SDS011;63714;55.812;37.658;2023-03-01T05:58:13;2.17;;;1.10;;
75139;SDS011;63714;55.812;37.658;2023-03-01T06:00:41;3.13;;;0.82;;
75139;SDS011;63714;55.812;37.658;2023-03-01T06:03:09;4.82;;;0.63;;
75139;SDS011;63714;55.812;37.658;2023-03-01T06:05:36;1.60;;;0.60;;
75139;SDS011;63714;55.812;37.658;2023-03-01T06:08:01;2.38;;;0.75;;
75139;SDS011;63714;55.812;37.658;2023-03-01T06:10:27;2.40;;;1.05;;
75139;SDS011;63714;55.812;37.658;2023-03-01T06:12:53;6.55;;;0.60;;
75139;SDS011;63714;55.812;37.658;2023-03-01T06:15:19;2.72;;;0.80;;
75139;SDS011;63714;55.812;37.658;2023-03-01T06:17:45;2.22;;;0.90;;
75139;SDS011;63714;55.812;37.658;2023-03-01T06:20:17;2.25;;;1.40;;
75139;SDS011;63714;55.812;37.658;2023-03-01T06:22:45;1.73;;;0.60;;
75139;SDS011;63714;55.812;37.658;2023-03-01T06:25:13;2.00;;;0.57;;
75139;SDS011;63714;55.812;37.658;2023-03-01T06:27:41;3.10;;;1.20;;
75139;SDS011;63714;55.812;37.658;2023-03-01T06:30:11;2.67;;;0.82;;
75139;SDS011;63714;55.812;37.658;2023-03-01T06:32:39;1.52;;;0.80;;
75139;SDS011;63714;55.812;37.658;2023-03-01T06:35:11;2.38;;;0.77;;
75139;SDS011;63714;55.812;37.658;2023-03-01T06:37:39;4.50;;;0.73;;
75139;SDS011;63714;55.812;37.658;2023-03-01T06:40:07;2.78;;;0.70;;
75139;SDS011;63714;55.812;37.658;2023-03-01T06:42:34;5.85;;;0.80;;
75139;SDS011;63714;55.812;37.658;2023-03-01T06:45:01;2.25;;;0.75;;
75139;SDS011;63714;55.812;37.658;2023-03-01T06:49:54;2.40;;;0.75;;
75139;SDS011;63714;55.812;37.658;2023-03-01T06:52:20;1.25;;;0.60;;
75139;SDS011;63714;55.812;37.658;2023-03-01T06:54:46;2.60;;;0.50;;
75139;SDS011;63714;55.812;37.658;2023-03-01T06:57:11;3.38;;;0.65;;
75139;SDS011;63714;55.812;37.658;2023-03-01T06:59:37;1.85;;;0.80;;
75139;SDS011;63714;55.812;37.658;2023-03-01T07:02:02;1.48;;;0.52;;
75139;SDS011;63714;55.812;37.658;2023-03-01T07:04:28;3.58;;;0.68;;
75139;SDS011;63714;55.812;37.658;2023-03-01T07:06:55;2.40;;;0.70;;
75139;SDS011;63714;55.812;37.658;2023-03-01T07:09:24;3.03;;;1.10;;
75139;SDS011;63714;55.812;37.658;2023-03-01T07:11:50;3.72;;;0.80;;
75139;SDS011;63714;55.812;37.658;2023-03-01T07:14:15;2.15;;;0.90;;
75139;SDS011;63714;55.812;37.658;2023-03-01T07:16:41;3.97;;;1.00;;
75139;SDS011;63714;55.812;37.658;2023-03-01T07:19:07;1.80;;;0.60;;
75139;SDS011;63714;55.812;37.658;2023-03-01T07:21:33;2.70;;;1.00;;
75139;SDS011;63714;55.812;37.658;2023-03-01T07:23:58;4.13;;;0.80;;
75139;SDS011;63714;55.812;37.658;2023-03-01T07:26:24;3.28;;;1.05;;
75139;SDS011;63714;55.812;37.658;2023-03-01T07:28:49;4.13;;;1.45;;
75139;SDS011;63714;55.812;37.658;2023-03-01T07:31:15;5.13;;;1.38;;
75139;SDS011;63714;55.812;37.658;2023-03-01T07:33:41;3.30;;;1.23;;
75139;SDS011;63714;55.812;37.658;2023-03-01T07:36:07;3.03;;;0.73;;
75139;SDS011;63714;55.812;37.658;2023-03-01T07:38:34;3.28;;;1.15;;
75139;SDS011;63714;55.812;37.658;2023-03-01T07:41:00;2.17;;;1.00;;
75139;SDS011;63714;55.812;37.658;2023-03-01T07:43:28;2.10;;;0.80;;
75139;SDS011;63714;55.812;37.658;2023-03-01T07:45:54;2.58;;;0.95;;
75139;SDS011;63714;55.812;37.658;2023-03-01T07:48:23;3.60;;;1.48;;
75139;SDS011;63714;55.812;37.658;2023-03-01T07:50:49;4.45;;;1.60;;
75139;SDS011;63714;55.812;37.658;2023-03-01T07:53:14;6.03;;;1.55;;
75139;SDS011;63714;55.812;37.658;2023-03-01T07:55:40;3.60;;;0.95;;
75139;SDS011;63714;55.812;37.658;2023-03-01T07:58:05;4.57;;;0.88;;
75139;SDS011;63714;55.812;37.658;2023-03-01T08:00:31;3.33;;;1.13;;
75139;SDS011;63714;55.812;37.658;2023-03-01T08:03:00;2.50;;;0.98;;
75139;SDS011;63714;55.812;37.658;2023-03-01T08:05:26;5.35;;;1.27;;
75139;SDS011;63714;55.812;37.658;2023-03-01T08:07:52;5.03;;;1.15;;
75139;SDS011;63714;55.812;37.658;2023-03-01T08:10:19;5.07;;;1.20;;
75139;SDS011;63714;55.812;37.658;2023-03-01T08:12:45;3.15;;;1.30;;
75139;SDS011;63714;55.812;37.658;2023-03-01T08:15:11;4.95;;;1.20;;
75139;SDS011;63714;55.812;37.658;2023-03-01T08:17:37;4.68;;;1.60;;
75139;SDS011;63714;55.812;37.658;2023-03-01T08:20:03;3.03;;;1.10;;
75139;SDS011;63714;55.812;37.658;2023-03-01T08:22:31;4.85;;;1.33;;
75139;SDS011;63714;55.812;37.658;2023-03-01T08:24:56;3.25;;;1.20;;
75139;SDS011;63714;55.812;37.658;2023-03-01T08:27:22;3.20;;;1.20;;
75139;SDS011;63714;55.812;37.658;2023-03-01T08:29:48;2.83;;;1.30;;
75139;SDS011;63714;55.812;37.658;2023-03-01T08:32:13;4.57;;;1.73;;
75139;SDS011;63714;55.812;37.658;2023-03-01T08:34:39;2.97;;;1.63;;
75139;SDS011;63714;55.812;37.658;2023-03-01T08:37:04;3.00;;;1.20;;
75139;SDS011;63714;55.812;37.658;2023-03-01T08:39:30;3.75;;;1.45;;
75139;SDS011;63714;55.812;37.658;2023-03-01T08:41:55;3.83;;;1.38;;
75139;SDS011;63714;55.812;37.658;2023-03-01T08:44:22;5.07;;;1.40;;
75139;SDS011;63714;55.812;37.658;2023-03-01T08:46:47;4.60;;;1.58;;
75139;SDS011;63714;55.812;37.658;2023-03-01T08:49:18;4.10;;;1.52;;
75139;SDS011;63714;55.812;37.658;2023-03-01T08:51:44;5.97;;;1.40;;
75139;SDS011;63714;55.812;37.658;2023-03-01T08:54:11;4.75;;;1.65;;
75139;SDS011;63714;55.812;37.658;2023-03-01T08:56:42;4.10;;;2.35;;
75139;SDS011;63714;55.812;37.658;2023-03-01T08:59:08;3.28;;;1.40;;
75139;SDS011;63714;55.812;37.658;2023-03-01T09:01:35;6.43;;;1.90;;
75139;SDS011;63714;55.812;37.658;2023-03-01T09:04:02;4.55;;;1.52;;
75139;SDS011;63714;55.812;37.658;2023-03-01T09:06:31;8.85;;;1.95;;
75139;SDS011;63714;55.812;37.658;2023-03-01T09:08:58;7.00;;;2.38;;
75139;SDS011;63714;55.812;37.658;2023-03-01T09:11:24;3.83;;;1.55;;
75139;SDS011;63714;55.812;37.658;2023-03-01T09:13:51;7.88;;;1.38;;
75139;SDS011;63714;55.812;37.658;2023-03-01T09:16:17;4.65;;;1.30;;
75139;SDS011;63714;55.812;37.658;2023-03-01T09:18:44;3.22;;;1.00;;
75139;SDS011;63714;55.812;37.658;2023-03-01T09:21:12;3.30;;;1.40;;
75139;SDS011;63714;55.812;37.658;2023-03-01T09:23:40;4.95;;;1.70;;
75139;SDS011;63714;55.812;37.658;2023-03-01T09:26:07;6.25;;;1.48;;
75139;SDS011;63714;55.812;37.658;2023-03-01T09:28:35;7.07;;;1.55;;
75139;SDS011;63714;55.812;37.658;2023-03-01T09:31:02;4.57;;;1.42;;
75139;SDS011;63714;55.812;37.658;2023-03-01T09:33:29;2.83;;;1.20;;
75139;SDS011;63714;55.812;37.658;2023-03-01T09:36:05;3.95;;;1.58;;
75139;SDS011;63714;55.812;37.658;2023-03-01T09:38:32;7.70;;;2.28;;
75139;SDS011;63714;55.812;37.658;2023-03-01T09:40:59;3.97;;;1.40;;
75139;SDS011;63714;55.812;37.658;2023-03-01T09:46:12;4.32;;;1.80;;
75139;SDS011;63714;55.812;37.658;2023-03-01T09:48:46;7.80;;;1.92;;
75139;SDS011;63714;55.812;37.658;2023-03-01T09:51:22;5.15;;;2.05;;
75139;SDS011;63714;55.812;37.658;2023-03-01T09:53:52;8.68;;;2.25;;
75139;SDS011;63714;55.812;37.658;2023-03-01T09:56:20;5.32;;;1.90;;
75139;SDS011;63714;55.812;37.658;2023-03-01T10:06:58;6.30;;;2.10;;
75139;SDS011;63714;55.812;37.658;2023-03-01T10:09:29;5.53;;;2.45;;
75139;SDS011;63714;55.812;37.658;2023-03-01T10:11:59;5.63;;;1.50;;
75139;SDS011;63714;55.812;37.658;2023-03-01T10:14:33;8.07;;;2.25;;
75139;SDS011;63714;55.812;37.658;2023-03-01T10:19:46;8.40;;;1.52;;
75139;SDS011;63714;55.812;37.658;2023-03-01T10:22:17;3.50;;;1.42;;
75139;SDS011;63714;55.812;37.658;2023-03-01T10:24:48;6.57;;;1.60;;
75139;SDS011;63714;55.812;37.658;2023-03-01T10:27:22;12.05;;;1.60;;
75139;SDS011;63714;55.812;37.658;2023-03-01T10:29:58;5.95;;;1.15;;
75139;SDS011;63714;55.812;37.658;2023-03-01T10:32:46;6.15;;;1.10;;
75139;SDS011;63714;55.812;37.658;2023-03-01T10:35:17;3.67;;;1.17;;
75139;SDS011;63714;55.812;37.658;2023-03-01T10:40:31;5.50;;;1.27;;
75139;SDS011;63714;55.812;37.658;2023-03-01T10:42:59;6.35;;;1.10;;
75139;SDS011;63714;55.812;37.658;2023-03-01T10:45:37;2.92;;;0.77;;
75139;SDS011;63714;55.812;37.658;2023-03-01T10:53:34;4.50;;;1.30;;
75139;SDS011;63714;55.812;37.658;2023-03-01T10:58:30;4.25;;;0.98;;
75139;SDS011;63714;55.812;37.658;2023-03-01T11:00:58;5.65;;;0.95;;
75139;SDS011;63714;55.812;37.658;2023-03-01T11:13:34;3.00;;;0.90;;
75139;SDS011;63714;55.812;37.658;2023-03-01T11:16:02;4.65;;;0.80;;
75139;SDS011;63714;55.812;37.658;2023-03-01T11:18:30;2.55;;;0.88;;
75139;SDS011;63714;55.812;37.658;2023-03-01T11:20:56;3.05;;;0.82;;
75139;SDS011;63714;55.812;37.658;2023-03-01T11:23:25;3.42;;;0.73;;
75139;SDS011;63714;55.812;37.658;2023-03-01T11:26:01;3.03;;;0.90;;
75139;SDS011;63714;55.812;37.658;2023-03-01T11:28:31;3.38;;;0.68;;
75139;SDS011;63714;55.812;37.658;2023-03-01T11:31:06;6.93;;;1.05;;
75139;SDS011;63714;55.812;37.658;2023-03-01T11:39:27;3.90;;;0.93;;
75139;SDS011;63714;55.812;37.658;2023-03-01T11:41:52;3.78;;;0.60;;
75139;SDS011;63714;55.812;37.658;2023-03-01T11:44:30;4.28;;;0.82;;
75139;SDS011;63714;55.812;37.658;2023-03-01T12:00:56;4.32;;;0.77;;
75139;SDS011;63714;55.812;37.658;2023-03-01T12:25:01;5.88;;;1.50;;
75139;SDS011;63714;55.812;37.658;2023-03-01T12:27:57;4.55;;;0.55;;
75139;SDS011;63714;55.812;37.658;2023-03-01T12:33:26;4.82;;;0.65;;
75139;SDS011;63714;55.812;37.658;2023-03-01T12:38:49;3.13;;;0.50;;
75139;SDS011;63714;55.812;37.658;2023-03-01T12:44:05;3.33;;;0.57;;
75139;SDS011;63714;55.812;37.658;2023-03-01T12:49:38;6.38;;;0.70;;
75139;SDS011;63714;55.812;37.658;2023-03-01T13:02:49;2.30;;;0.60;;
75139;SDS011;63714;55.812;37.658;2023-03-01T13:08:18;3.20;;;0.40;;
75139;SDS011;63714;55.812;37.658;2023-03-01T13:10:56;2.60;;;0.70;;
75139;SDS011;63714;55.812;37.658;2023-03-01T13:13:26;2.40;;;0.82;;
75139;SDS011;63714;55.812;37.658;2023-03-01T13:15:53;5.90;;;0.80;;
75139;SDS011;63714;55.812;37.658;2023-03-01T13:20:49;2.58;;;0.60;;
75139;SDS011;63714;55.812;37.658;2023-03-01T13:30:56;1.75;;;0.35;;
75139;SDS011;63714;55.812;37.658;2023-03-01T13:35:48;3.00;;;0.65;;
75139;SDS011;63714;55.812;37.658;2023-03-01T13:41:02;3.25;;;0.40;;
75139;SDS011;63714;55.812;37.658;2023-03-01T13:43:31;4.38;;;0.60;;
75139;SDS011;63714;55.812;37.658;2023-03-01T13:45:59;2.33;;;0.40;;
75139;SDS011;63714;55.812;37.658;2023-03-01T13:48:33;3.28;;;0.63;;
75139;SDS011;63714;55.812;37.658;2023-03-01T13:51:00;3.40;;;0.55;;
75139;SDS011;63714;55.812;37.658;2023-03-01T13:53:33;5.15;;;0.85;;
75139;SDS011;63714;55.812;37.658;2023-03-01T13:56:08;2.05;;;0.68;;
75139;SDS011;63714;55.812;37.658;2023-03-01T13:58:46;1.25;;;0.38;;
75139;SDS011;63714;55.812;37.658;2023-03-01T14:01:29;4.10;;;0.50;;
75139;SDS011;63714;55.812;37.658;2023-03-01T14:03:59;1.95;;;0.40;;
75139;SDS011;63714;55.812;37.658;2023-03-01T14:06:29;1.38;;;0.40;;
75139;SDS011;63714;55.812;37.658;2023-03-01T14:09:15;3.80;;;0.52;;
75139;SDS011;63714;55.812;37.658;2023-03-01T14:11:50;2.42;;;0.40;;
75139;SDS011;63714;55.812;37.658;2023-03-01T14:20:21;2.80;;;0.50;;
75139;SDS011;63714;55.812;37.658;2023-03-01T14:22:51;1.48;;;0.40;;
75139;SDS011;63714;55.812;37.658;2023-03-01T14:25:23;1.85;;;0.35;;
75139;SDS011;63714;55.812;37.658;2023-03-01T14:27:59;5.50;;;1.00;;
75139;SDS011;63714;55.812;37.658;2023-03-01T14:30:37;3.20;;;0.50;;
75139;SDS011;63714;55.812;37.658;2023-03-01T14:33:18;2.03;;;0.88;;
75139;SDS011;63714;55.812;37.658;2023-03-01T14:38:35;1.48;;;0.70;;
75139;SDS011;63714;55.812;37.658;2023-03-01T14:41:07;4.85;;;0.75;;
75139;SDS011;63714;55.812;37.658;2023-03-01T14:43:33;5.95;;;0.80;;
75139;SDS011;63714;55.812;37.658;2023-03-01T14:46:00;3.67;;;0.65;;
75139;SDS011;63714;55.812;37.658;2023-03-01T14:48:26;4.03;;;1.00;;
75139;SDS011;63714;55.812;37.658;2023-03-01T14:50:54;3.22;;;0.82;;
75139;SDS011;63714;55.812;37.658;2023-03-01T14:53:21;2.55;;;0.80;;
75139;SDS011;63714;55.812;37.658;2023-03-01T14:55:53;3.42;;;0.77;;
75139;SDS011;63714;55.812;37.658;2023-03-01T14:58:21;2.72;;;0.63;;
75139;SDS011;63714;55.812;37.658;2023-03-01T15:00:56;3.03;;;0.70;;
75139;SDS011;63714;55.812;37.658;2023-03-01T15:03:43;1.13;;;0.60;;
75139;SDS011;63714;55.812;37.658;2023-03-01T15:06:14;3.28;;;0.80;;
75139;SDS011;63714;55.812;37.658;2023-03-01T15:08:44;2.05;;;0.60;;
75139;SDS011;63714;55.812;37.658;2023-03-01T15:11:27;5.18;;;1.50;;
75139;SDS011;63714;55.812;37.658;2023-03-01T15:13:54;3.88;;;1.10;;
75139;SDS011;63714;55.812;37.658;2023-03-01T15:16:30;2.75;;;0.57;;
75139;SDS011;63714;55.812;37.658;2023-03-01T15:18:59;3.15;;;1.20;;
75139;SDS011;63714;55.812;37.658;2023-03-01T15:21:27;2.72;;;1.00;;
75139;SDS011;63714;55.812;37.658;2023-03-01T15:24:13;4.68;;;0.90;;
75139;SDS011;63714;55.812;37.658;2023-03-01T15:26:52;3.17;;;1.38;;
75139;SDS011;63714;55.812;37.658;2023-03-01T15:29:25;4.03;;;0.90;;
75139;SDS011;63714;55.812;37.658;2023-03-01T15:34:24;6.32;;;1.02;;
75139;SDS011;63714;55.812;37.658;2023-03-01T15:36:55;4.97;;;1.17;;
75139;SDS011;63714;55.812;37.658;2023-03-01T15:42:12;3.10;;;0.68;;
75139;SDS011;63714;55.812;37.658;2023-03-01T15:45:07;2.60;;;0.93;;
75139;SDS011;63714;55.812;37.658;2023-03-01T15:47:51;2.85;;;1.08;;
75139;SDS011;63714;55.812;37.658;2023-03-01T15:50:31;3.25;;;0.90;;
75139;SDS011;63714;55.812;37.658;2023-03-01T15:52:59;3.45;;;0.85;;
75139;SDS011;63714;55.812;37.658;2023-03-01T15:55:27;4.88;;;0.80;;
75139;SDS011;63714;55.812;37.658;2023-03-01T15:58:28;2.83;;;0.80;;
75139;SDS011;63714;55.812;37.658;2023-03-01T16:00:48;3.33;;;0.68;;
75139;SDS011;63714;55.812;37.658;2023-03-01T16:05:46;3.88;;;0.60;;
75139;SDS011;63714;55.812;37.658;2023-03-01T16:08:14;2.80;;;0.70;;
75139;SDS011;63714;55.812;37.658;2023-03-01T16:10:40;1.67;;;0.60;;
75139;SDS011;63714;55.812;37.658;2023-03-01T16:13:09;2.30;;;0.55;;
75139;SDS011;63714;55.812;37.658;2023-03-01T16:15:35;2.15;;;0.60;;
75139;SDS011;63714;55.812;37.658;2023-03-01T16:18:02;1.23;;;0.40;;
75139;SDS011;63714;55.812;37.658;2023-03-01T16:20:28;1.35;;;0.38;;
75139;SDS011;63714;55.812;37.658;2023-03-01T16:22:55;3.28;;;0.73;;
75139;SDS011;63714;55.812;37.658;2023-03-01T16:25:23;3.70;;;0.60;;
75139;SDS011;63714;55.812;37.658;2023-03-01T16:27:49;2.67;;;0.50;;
75139;SDS011;63714;55.812;37.658;2023-03-01T16:30:16;2.05;;;0.50;;
75139;SDS011;63714;55.812;37.658;2023-03-01T16:32:46;2.13;;;0.50;;
75139;SDS011;63714;55.812;37.658;2023-03-01T16:35:14;1.65;;;0.30;;
75139;SDS011;63714;55.812;37.658;2023-03-01T16:37:42;0.77;;;0.32;;
75139;SDS011;63714;55.812;37.658;2023-03-01T16:40:18;4.43;;;0.60;;
75139;SDS011;63714;55.812;37.658;2023-03-01T16:42:46;0.77;;;0.20;;
75139;SDS011;63714;55.812;37.658;2023-03-01T16:45:13;3.22;;;0.68;;
75139;SDS011;63714;55.812;37.658;2023-03-01T16:47:38;2.83;;;0.68;;
75139;SDS011;63714;55.812;37.658;2023-03-01T16:50:04;6.53;;;2.50;;
75139;SDS011;63714;55.812;37.658;2023-03-01T16:52:36;2.22;;;0.60;;
75139;SDS011;63714;55.812;37.658;2023-03-01T16:55:03;1.85;;;0.50;;
75139;SDS011;63714;55.812;37.658;2023-03-01T16:57:30;1.63;;;0.60;;
75139;SDS011;63714;55.812;37.658;2023-03-01T16:59:56;2.33;;;0.50;;
75139;SDS011;63714;55.812;37.658;2023-03-01T17:02:22;1.90;;;0.40;;
75139;SDS011;63714;55.812;37.658;2023-03-01T17:04:54;2.17;;;0.50;;
75139;SDS011;63714;55.812;37.658;2023-03-01T17:07:20;2.20;;;0.60;;
75139;SDS011;63714;55.812;37.658;2023-03-01T17:09:46;2.63;;;0.50;;